Time;durP1;ratioP1;P1;durP2;ratioP2;P2;SDS_P1;SDS_P2;PMS_P1;PMS_P2;Temp;Humidity;BMP_temperature;BMP_pressure;BME280_temperature;BME280_humidity;BME280_pressure;Samples;Min_cycle;Max_cycle;Signal;HPM_P1;HPM_P2
2023/04/08 00:02:18;;;;;;;4.90;4.10;;;8.80;61.70;8.60;96414.00;;;;5040256;28;20205;-85
2023/04/08 00:04:45;;;;;;;5.30;3.67;;;8.80;61.70;8.60;96411.00;;;;5041280;28;20228;-85
2023/04/08 00:07:13;;;;;;;4.30;3.80;;;8.70;61.80;8.60;96421.00;;;;5021096;28;20200;-85
2023/04/08 00:09:40;;;;;;;3.87;3.57;;;8.80;62.00;8.70;96422.00;;;;5044515;28;20247;-85
2023/04/08 00:12:08;;;;;;;4.10;3.70;;;8.80;62.20;8.70;96419.00;;;;5027555;28;20236;-84
2023/04/08 00:14:37;;;;;;;3.50;3.20;;;8.80;62.30;8.70;96419.00;;;;5048752;28;20216;-84
2023/04/08 00:17:07;;;;;;;3.37;3.10;;;8.80;63.30;8.70;96417.00;;;;5037049;28;20610;-84
2023/04/08 00:19:34;;;;;;;3.97;3.37;;;8.80;62.80;8.70;96420.00;;;;5035933;28;20610;-85
2023/04/08 00:22:02;;;;;;;4.20;3.57;;;8.80;62.60;8.80;96418.00;;;;5028481;28;20197;-85
2023/04/08 00:24:31;;;;;;;3.63;3.33;;;8.80;62.70;8.80;96425.00;;;;5026700;28;20214;-85
2023/04/08 00:27:00;;;;;;;5.33;3.77;;;8.90;62.80;8.80;96426.00;;;;5035052;28;20204;-85
2023/04/08 00:29:27;;;;;;;3.73;3.47;;;8.90;62.90;8.80;96428.00;;;;5044856;28;20657;-85
2023/04/08 00:31:55;;;;;;;3.87;3.57;;;8.90;62.90;8.80;96418.00;;;;5042762;28;20197;-84
2023/04/08 00:34:24;;;;;;;4.77;3.73;;;9.00;63.00;8.80;96428.00;;;;5055137;28;20221;-87
2023/04/08 00:36:51;;;;;;;4.57;4.17;;;9.00;63.10;8.80;96426.00;;;;5059560;28;20205;-85
2023/04/08 00:39:18;;;;;;;4.50;3.50;;;9.00;63.80;8.80;96425.00;;;;5043466;28;20221;-85
2023/04/08 00:41:45;;;;;;;3.80;3.50;;;9.00;63.10;8.90;96427.00;;;;5045319;28;20726;-85
2023/04/08 00:44:12;;;;;;;4.00;3.60;;;9.00;63.10;8.80;96429.00;;;;5065602;28;20309;-84
2023/04/08 00:46:40;;;;;;;3.37;3.07;;;9.00;63.10;8.90;96429.00;;;;5036630;28;20280;-84
2023/04/08 00:49:08;;;;;;;4.63;3.57;;;9.00;63.10;8.90;96429.00;;;;5041082;28;20215;-85
2023/04/08 00:51:37;;;;;;;4.13;3.77;;;9.00;63.10;8.90;96424.00;;;;5040898;28;20208;-85
2023/04/08 00:54:05;;;;;;;3.87;3.50;;;9.00;63.20;8.90;96429.00;;;;5040546;28;20256;-85
2023/04/08 00:56:34;;;;;;;3.80;3.43;;;9.00;63.30;8.90;96439.00;;;;5033701;28;20206;-85
2023/04/08 00:59:02;;;;;;;4.27;3.70;;;9.00;63.40;8.90;96432.00;;;;5015489;28;20304;-85
2023/04/08 01:01:39;;;;;;;3.83;3.43;;;9.10;63.50;8.90;96434.00;;;;5028762;28;20224;-85
2023/04/08 01:04:17;;;;;;;4.27;3.87;;;9.10;63.60;8.90;96431.00;;;;5007804;28;20281;-84
2023/04/08 01:06:56;;;;;;;4.30;3.90;;;9.10;63.70;9.00;96439.00;;;;5041994;28;20291;-85
2023/04/08 01:09:32;;;;;;;3.93;3.63;;;9.10;63.80;9.00;96440.00;;;;5026489;28;20204;-85
2023/04/08 01:12:05;;;;;;;3.93;3.63;;;9.10;63.70;9.00;96440.00;;;;5041065;28;20296;-84
2023/04/08 01:14:42;;;;;;;3.80;3.50;;;9.10;63.70;9.00;96441.00;;;;5041985;28;20196;-85
2023/04/08 01:17:11;;;;;;;4.30;3.90;;;9.20;63.80;9.10;96439.00;;;;5051542;28;20207;-85
2023/04/08 01:19:43;;;;;;;3.60;3.27;;;9.20;63.70;9.10;96443.00;;;;5009090;28;20224;-84
2023/04/08 01:22:33;;;;;;;4.20;3.80;;;9.20;63.70;9.10;96444.00;;;;5023356;28;20618;-84
2023/04/08 01:25:08;;;;;;;3.70;3.40;;;9.20;64.00;9.10;96452.00;;;;5036257;28;20195;-85
2023/04/08 01:27:39;;;;;;;3.53;3.23;;;9.20;63.80;9.20;96443.00;;;;5043147;28;20211;-85
2023/04/08 01:30:10;;;;;;;3.87;3.47;;;9.20;63.80;9.20;96440.00;;;;5025044;28;20227;-85
2023/04/08 01:32:40;;;;;;;4.50;4.10;;;9.30;63.80;9.20;96445.00;;;;5032941;28;20217;-84
2023/04/08 01:35:09;;;;;;;4.47;4.07;;;9.30;63.80;9.20;96436.00;;;;5048090;28;20201;-85
2023/04/08 01:37:39;;;;;;;4.57;4.17;;;9.30;63.80;9.20;96438.00;;;;5023230;28;20576;-86
2023/04/08 01:40:11;;;;;;;4.10;3.80;;;9.40;63.80;9.30;96436.00;;;;5014592;28;20643;-85
2023/04/08 01:42:40;;;;;;;4.67;4.23;;;9.30;63.80;9.30;96438.00;;;;5037420;28;20311;-85
2023/04/08 01:45:11;;;;;;;4.63;4.10;;;9.40;63.90;9.30;96431.00;;;;5031909;28;20208;-85
2023/04/08 01:47:39;;;;;;;4.70;4.30;;;9.40;64.00;9.30;96433.00;;;;5023171;28;20208;-85
2023/04/08 01:50:09;;;;;;;4.40;4.00;;;9.40;63.90;9.40;96440.00;;;;5014536;28;20193;-85
2023/04/08 01:52:40;;;;;;;4.00;3.70;;;9.40;64.00;9.40;96437.00;;;;5022547;28;20255;-85
2023/04/08 01:55:08;;;;;;;4.90;4.40;;;9.50;64.10;9.40;96439.00;;;;5030202;28;20288;-85
2023/04/08 01:57:42;;;;;;;4.50;4.10;;;9.50;64.00;9.50;96440.00;;;;5040404;28;20201;-85
2023/04/08 02:00:13;;;;;;;4.70;4.20;;;9.50;64.10;9.50;96440.00;;;;5021710;28;20228;-85
2023/04/08 02:02:46;;;;;;;4.87;4.30;;;9.50;64.00;9.50;96443.00;;;;5031621;28;20226;-85
2023/04/08 02:05:13;;;;;;;4.80;4.40;;;9.60;64.10;9.50;96445.00;;;;5045661;28;20287;-85
2023/04/08 02:07:40;;;;;;;4.47;4.07;;;9.60;64.00;9.60;96442.00;;;;5050439;28;20201;-85
2023/04/08 02:10:09;;;;;;;4.40;4.10;;;9.60;64.00;9.60;96440.00;;;;5020788;28;20201;-85
2023/04/08 02:12:37;;;;;;;5.50;4.30;;;9.60;63.90;9.60;96437.00;;;;5027577;28;20300;-85
2023/04/08 02:15:08;;;;;;;5.23;4.33;;;9.60;63.80;9.60;96442.00;;;;5035324;28;20206;-85
2023/04/08 02:17:45;;;;;;;4.70;4.30;;;9.70;63.90;9.60;96443.00;;;;5050819;28;20200;-86
2023/04/08 02:20:19;;;;;;;4.53;4.13;;;9.70;64.00;9.60;96449.00;;;;5033925;28;20216;-85
2023/04/08 02:22:53;;;;;;;5.20;4.70;;;9.70;64.00;9.70;96448.00;;;;5033718;28;20225;-85
2023/04/08 02:25:25;;;;;;;5.13;4.73;;;9.70;63.90;9.70;96446.00;;;;5020378;28;20206;-85
2023/04/08 02:27:56;;;;;;;4.87;4.27;;;9.70;64.00;9.70;96441.00;;;;5045759;28;20208;-85
2023/04/08 02:30:28;;;;;;;4.90;4.47;;;9.70;64.00;9.70;96441.00;;;;5024205;28;20696;-85
2023/04/08 02:32:58;;;;;;;4.80;4.40;;;9.80;64.10;9.70;96453.00;;;;5026320;28;20311;-85
2023/04/08 02:35:27;;;;;;;4.80;4.40;;;9.80;64.10;9.80;96456.00;;;;5001771;28;20200;-85
2023/04/08 02:37:55;;;;;;;4.73;4.33;;;9.80;64.10;9.80;96446.00;;;;5018193;28;20212;-84
2023/04/08 02:40:28;;;;;;;5.20;4.73;;;9.90;64.10;9.80;96453.00;;;;5045132;28;20233;-85
2023/04/08 02:42:56;;;;;;;4.30;4.00;;;9.90;64.10;9.80;96451.00;;;;5035807;28;20227;-86
2023/04/08 02:45:30;;;;;;;4.33;4.03;;;9.90;64.00;9.80;96453.00;;;;5018777;28;20709;-85
2023/04/08 02:47:57;;;;;;;6.20;4.77;;;9.90;64.20;9.80;96461.00;;;;5019447;28;20198;-85
2023/04/08 02:50:25;;;;;;;4.37;3.97;;;9.90;64.10;9.90;96460.00;;;;5018148;28;20208;-85
2023/04/08 02:52:52;;;;;;;4.70;4.33;;;9.90;64.00;9.90;96466.00;;;;5045215;28;20224;-85
2023/04/08 02:55:20;;;;;;;4.90;4.30;;;9.90;64.10;9.90;96466.00;;;;5049783;28;20197;-85
2023/04/08 02:57:49;;;;;;;4.47;4.07;;;9.90;64.10;9.90;96466.00;;;;5019650;28;20224;-85
2023/04/08 03:00:17;;;;;;;4.30;3.90;;;10.00;64.10;9.90;96466.00;;;;5023092;28;20227;-85
2023/04/08 03:02:48;;;;;;;4.80;4.40;;;9.90;64.10;9.90;96459.00;;;;5044601;28;20221;-85
2023/04/08 03:05:16;;;;;;;4.63;4.23;;;10.00;64.30;9.90;96460.00;;;;5000022;28;20201;-86
2023/04/08 03:07:43;;;;;;;4.70;4.30;;;10.00;64.10;9.90;96463.00;;;;5039120;28;20194;-85
2023/04/08 03:10:11;;;;;;;4.77;4.27;;;10.00;64.20;9.90;96465.00;;;;5041458;28;20224;-86
2023/04/08 03:12:39;;;;;;;5.83;4.60;;;10.00;64.20;9.90;96468.00;;;;5032955;28;20718;-86
2023/04/08 03:15:07;;;;;;;4.90;4.10;;;10.00;64.20;9.90;96467.00;;;;5028614;28;20668;-86
2023/04/08 03:17:35;;;;;;;4.73;4.33;;;10.00;64.20;9.90;96472.00;;;;5036297;28;20211;-85
2023/04/08 03:20:04;;;;;;;4.23;3.83;;;10.00;64.20;9.90;96466.00;;;;5031802;28;20232;-85
2023/04/08 03:22:33;;;;;;;4.47;4.07;;;10.00;64.10;9.90;96471.00;;;;5012963;28;20310;-85
2023/04/08 03:25:01;;;;;;;5.60;4.43;;;10.00;64.10;9.90;96473.00;;;;5043901;28;20608;-85
2023/04/08 03:27:29;;;;;;;4.77;4.27;;;10.00;64.00;9.90;96469.00;;;;5034294;28;20288;-85
2023/04/08 03:29:57;;;;;;;4.83;4.43;;;10.00;64.00;9.90;96472.00;;;;5044094;28;20207;-85
2023/04/08 03:32:24;;;;;;;4.33;3.93;;;10.00;64.10;9.90;96469.00;;;;5021878;28;20225;-85
2023/04/08 03:34:52;;;;;;;4.83;4.33;;;10.00;64.10;9.90;96477.00;;;;5016805;28;20202;-86
2023/04/08 03:37:21;;;;;;;4.80;4.40;;;10.00;64.10;9.90;96469.00;;;;5042777;28;20201;-85
2023/04/08 03:39:48;;;;;;;4.63;4.23;;;10.00;64.20;9.90;96470.00;;;;5016021;28;20229;-85
2023/04/08 03:42:16;;;;;;;4.60;4.20;;;10.00;64.10;9.90;96466.00;;;;5040401;28;20227;-85
2023/04/08 03:44:43;;;;;;;4.97;4.30;;;9.90;64.10;9.90;96470.00;;;;5043502;28;20288;-85
2023/04/08 03:47:10;;;;;;;5.10;4.60;;;9.90;64.20;9.90;96477.00;;;;5027937;28;20201;-85
2023/04/08 03:49:37;;;;;;;4.67;4.20;;;10.00;64.30;9.90;96480.00;;;;5023607;28;20202;-85
2023/04/08 03:52:05;;;;;;;4.33;3.93;;;9.90;64.40;9.90;96480.00;;;;5034087;28;20582;-85
2023/04/08 03:54:33;;;;;;;4.43;4.13;;;9.90;64.60;9.90;96487.00;;;;5016457;28;20208;-85
2023/04/08 03:57:01;;;;;;;5.33;4.87;;;9.90;64.70;9.90;96493.00;;;;5033653;28;20201;-86
2023/04/08 03:59:28;;;;;;;4.50;4.10;;;10.00;64.70;9.90;96480.00;;;;5033963;28;20200;-85
2023/04/08 04:01:55;;;;;;;4.70;4.30;;;9.90;64.70;9.90;96486.00;;;;5022804;28;20213;-85
2023/04/08 04:04:23;;;;;;;4.67;4.27;;;10.00;64.70;9.90;96493.00;;;;5010465;28;20706;-86
2023/04/08 04:06:50;;;;;;;6.87;4.53;;;9.90;64.70;9.90;96496.00;;;;5014404;28;20207;-85
2023/04/08 04:09:18;;;;;;;4.50;4.10;;;10.00;64.80;9.90;96497.00;;;;5037789;28;20201;-85
2023/04/08 04:11:46;;;;;;;4.50;4.10;;;10.00;64.90;9.90;96490.00;;;;5014422;28;20212;-86
2023/04/08 04:14:14;;;;;;;4.63;4.23;;;10.00;65.00;9.90;96497.00;;;;5031877;28;20217;-85
2023/04/08 04:16:41;;;;;;;4.77;4.27;;;10.00;65.00;9.90;96494.00;;;;5023726;28;20599;-85
2023/04/08 04:19:08;;;;;;;4.83;4.43;;;10.00;65.00;9.90;96502.00;;;;5033593;28;20201;-86
2023/04/08 04:21:35;;;;;;;6.13;4.53;;;10.00;65.10;9.90;96491.00;;;;5031859;28;20308;-85
2023/04/08 04:24:03;;;;;;;5.23;4.30;;;10.00;65.10;9.90;96503.00;;;;5035752;28;20504;-85
2023/04/08 04:26:30;;;;;;;4.90;4.50;;;10.00;65.10;9.90;96506.00;;;;5056258;28;20213;-88
2023/04/08 04:28:58;;;;;;;4.93;4.53;;;10.00;65.20;9.90;96507.00;;;;5075714;28;20212;-88
2023/04/08 04:31:26;;;;;;;4.07;3.67;;;10.00;65.20;9.90;96506.00;;;;5032516;28;20276;-85
2023/04/08 04:33:54;;;;;;;4.80;4.30;;;10.00;65.20;9.90;96501.00;;;;5024785;28;20221;-85
2023/04/08 04:36:21;;;;;;;4.73;4.17;;;10.00;65.20;9.90;96498.00;;;;5035551;28;20721;-85
2023/04/08 04:38:50;;;;;;;5.37;4.90;;;10.00;65.20;10.00;96515.00;;;;5033189;28;20193;-85
2023/04/08 04:41:20;;;;;;;5.03;4.63;;;10.10;65.30;10.00;96512.00;;;;5015551;28;20701;-85
2023/04/08 04:43:47;;;;;;;6.13;4.60;;;10.00;65.20;10.00;96505.00;;;;5042614;28;20251;-85
2023/04/08 04:46:16;;;;;;;4.53;4.13;;;10.10;65.30;10.00;96500.00;;;;5034950;28;20193;-85
2023/04/08 04:48:43;;;;;;;5.10;4.60;;;10.10;65.40;10.00;96510.00;;;;5035393;28;20267;-85
2023/04/08 04:51:11;;;;;;;4.63;4.20;;;10.10;65.40;10.00;96504.00;;;;5032179;28;20201;-85
2023/04/08 04:53:38;;;;;;;5.23;4.60;;;10.10;65.50;10.00;96512.00;;;;5012909;28;20224;-85
2023/04/08 04:56:06;;;;;;;5.33;4.83;;;10.10;65.50;10.00;96510.00;;;;5039422;28;20205;-85
2023/04/08 04:58:33;;;;;;;5.33;4.60;;;10.10;66.30;10.00;96521.00;;;;5025462;28;20237;-85
2023/04/08 05:01:01;;;;;;;4.80;4.40;;;10.10;65.60;10.10;96521.00;;;;5050453;28;20328;-85
2023/04/08 05:03:30;;;;;;;5.17;4.30;;;10.10;65.70;10.10;96526.00;;;;5018967;28;20300;-85
2023/04/08 05:05:58;;;;;;;5.33;4.60;;;10.20;65.90;10.10;96526.00;;;;5015463;28;20205;-85
2023/04/08 05:08:25;;;;;;;5.13;4.67;;;10.20;65.90;10.20;96529.00;;;;5023781;28;20193;-85
2023/04/08 05:10:54;;;;;;;6.57;4.40;;;10.20;65.90;10.20;96534.00;;;;5040564;28;20204;-85
2023/04/08 05:13:22;;;;;;;5.00;4.60;;;10.20;65.90;10.20;96533.00;;;;5032912;28;20295;-86
2023/04/08 05:15:49;;;;;;;4.57;4.13;;;10.20;65.90;10.20;96542.00;;;;5033158;28;20247;-85
2023/04/08 05:18:17;;;;;;;5.77;4.60;;;10.30;66.00;10.30;96538.00;;;;5032822;28;20281;-85
2023/04/08 05:20:46;;;;;;;6.80;4.97;;;10.30;65.40;10.30;96540.00;;;;5040295;28;20308;-86
2023/04/08 05:23:13;;;;;;;5.33;4.83;;;10.30;66.00;10.30;96538.00;;;;5032151;28;20228;-85
2023/04/08 05:25:41;;;;;;;5.13;4.63;;;10.30;65.90;10.30;96536.00;;;;5005318;28;20661;-85
2023/04/08 05:28:08;;;;;;;4.93;4.53;;;10.30;65.90;10.30;96535.00;;;;5031883;28;20203;-85
2023/04/08 05:30:35;;;;;;;5.87;5.17;;;10.40;66.00;10.30;96545.00;;;;5040675;28;20295;-86
2023/04/08 05:33:03;;;;;;;4.83;4.30;;;10.40;66.10;10.40;96545.00;;;;5024271;28;20408;-85
2023/04/08 05:35:30;;;;;;;5.47;4.97;;;10.40;66.10;10.40;96544.00;;;;5040874;28;20276;-86
2023/04/08 05:37:59;;;;;;;6.30;5.53;;;10.40;66.10;10.40;96542.00;;;;5034237;28;20242;-85
2023/04/08 05:40:26;;;;;;;6.13;5.53;;;10.40;66.20;10.40;96538.00;;;;5033962;28;20247;-86
2023/04/08 05:42:54;;;;;;;6.70;6.00;;;10.50;66.20;10.50;96540.00;;;;5038702;28;20311;-87
2023/04/08 05:45:22;;;;;;;6.03;5.40;;;10.50;66.20;10.50;96550.00;;;;5032583;28;20241;-86
2023/04/08 05:47:49;;;;;;;6.40;5.80;;;10.50;66.30;10.60;96554.00;;;;5031876;28;20194;-87
2023/04/08 05:50:17;;;;;;;5.93;5.37;;;10.50;66.20;10.70;96551.00;;;;5026180;28;20297;-86
2023/04/08 05:52:47;;;;;;;6.10;5.60;;;10.60;66.30;10.70;96555.00;;;;5028956;28;20308;-86
2023/04/08 05:55:16;;;;;;;6.40;5.83;;;10.60;66.30;10.80;96556.00;;;;5030446;28;20255;-86
2023/04/08 05:57:43;;;;;;;6.20;5.60;;;10.60;66.20;10.80;96559.00;;;;5001505;28;20205;-86
2023/04/08 06:00:11;;;;;;;6.40;5.80;;;10.70;66.20;10.90;96565.00;;;;5018159;28;20227;-85
2023/04/08 06:02:39;;;;;;;5.90;5.17;;;10.70;66.10;10.90;96566.00;;;;5036336;28;20252;-86
2023/04/08 06:05:07;;;;;;;6.00;5.40;;;10.80;66.20;11.00;96565.00;;;;5031792;28;20258;-85
2023/04/08 06:07:34;;;;;;;6.33;5.73;;;10.80;66.20;11.00;96564.00;;;;5058110;28;20699;-85
2023/04/08 06:10:02;;;;;;;6.60;6.00;;;10.80;66.20;11.10;96565.00;;;;5043378;28;20583;-85
2023/04/08 06:12:31;;;;;;;7.23;6.47;;;10.90;66.20;11.10;96565.00;;;;5036233;28;20228;-86
2023/04/08 06:14:59;;;;;;;6.33;5.57;;;10.90;66.20;11.10;96576.00;;;;5041296;28;20220;-86
2023/04/08 06:17:26;;;;;;;8.13;6.37;;;11.00;66.20;11.10;96573.00;;;;5040304;28;20279;-86
2023/04/08 06:19:53;;;;;;;8.10;6.30;;;11.00;66.10;11.20;96578.00;;;;5012879;28;20287;-85
2023/04/08 06:22:21;;;;;;;7.13;6.43;;;11.00;66.00;11.20;96570.00;;;;5046436;28;20224;-85
2023/04/08 06:24:48;;;;;;;6.00;5.20;;;11.10;66.00;11.30;96583.00;;;;5039266;28;20647;-86
2023/04/08 06:27:16;;;;;;;6.80;6.03;;;11.10;66.00;11.30;96591.00;;;;5020438;28;20197;-86
2023/04/08 06:29:46;;;;;;;6.30;5.70;;;11.10;66.10;11.30;96586.00;;;;5020519;28;20291;-86
2023/04/08 06:32:13;;;;;;;6.73;5.80;;;11.20;66.30;11.40;96588.00;;;;5051393;28;20197;-84
2023/04/08 06:34:41;;;;;;;7.63;5.83;;;11.20;66.20;11.50;96595.00;;;;5049220;28;20227;-84
2023/04/08 06:37:08;;;;;;;7.50;6.43;;;11.20;66.20;11.50;96594.00;;;;5046549;28;20209;-84
2023/04/08 06:39:37;;;;;;;7.23;6.27;;;11.30;66.30;11.50;96592.00;;;;5036552;28;20201;-85
2023/04/08 06:42:05;;;;;;;6.30;5.70;;;11.30;66.20;11.60;96591.00;;;;5033533;28;20328;-86
2023/04/08 06:44:32;;;;;;;6.93;6.27;;;11.40;66.00;11.60;96596.00;;;;5027646;28;20776;-85
2023/04/08 06:47:01;;;;;;;6.20;5.60;;;11.40;65.80;11.70;96595.00;;;;5027987;28;20209;-79
2023/04/08 06:49:29;;;;;;;8.57;6.33;;;11.50;65.90;11.70;96598.00;;;;5043177;28;20269;-82
2023/04/08 06:51:56;;;;;;;6.63;6.03;;;11.50;65.80;11.70;96602.00;;;;5056413;28;20205;-83
2023/04/08 06:54:23;;;;;;;7.50;6.40;;;11.50;65.60;11.80;96607.00;;;;5056663;28;20213;-81
2023/04/08 06:56:50;;;;;;;6.37;5.77;;;11.60;65.60;11.80;96607.00;;;;5035101;28;20254;-82
2023/04/08 06:59:18;;;;;;;7.40;6.70;;;11.60;65.50;11.90;96604.00;;;;5033974;28;20196;-81
2023/04/08 07:01:45;;;;;;;7.20;6.50;;;11.70;65.40;12.00;96612.00;;;;5054743;28;20281;-82
2023/04/08 07:04:14;;;;;;;6.87;6.27;;;11.70;65.30;12.00;96610.00;;;;5047035;28;20595;-80
2023/04/08 07:06:41;;;;;;;6.57;5.83;;;11.70;65.10;12.00;96611.00;;;;5055517;28;20225;-82
2023/04/08 07:09:09;;;;;;;7.50;6.80;;;11.80;64.80;12.00;96620.00;;;;5038137;28;20284;-81
2023/04/08 07:11:36;;;;;;;6.43;5.77;;;11.80;64.40;12.10;96622.00;;;;5026833;28;20207;-80
2023/04/08 07:14:03;;;;;;;6.30;5.50;;;11.90;64.40;12.10;96618.00;;;;5019487;28;20225;-83
2023/04/08 07:16:31;;;;;;;6.83;6.17;;;11.90;64.30;12.10;96626.00;;;;5046107;28;20200;-84
2023/04/08 07:18:58;;;;;;;6.07;5.57;;;12.00;64.20;12.20;96620.00;;;;5035819;28;20284;-82
2023/04/08 07:21:27;;;;;;;6.03;5.30;;;12.00;64.20;12.20;96627.00;;;;5044297;28;20319;-84
2023/04/08 07:23:54;;;;;;;6.37;5.77;;;12.00;64.10;12.30;96623.00;;;;5032061;28;20599;-85
2023/04/08 07:26:24;;;;;;;5.83;5.33;;;12.10;63.50;12.30;96623.00;;;;5031568;28;20197;-84
2023/04/08 07:28:52;;;;;;;7.00;6.30;;;12.10;63.20;12.30;96620.00;;;;5054377;28;20729;-83
2023/04/08 07:31:19;;;;;;;6.27;5.67;;;12.10;62.90;12.30;96631.00;;;;5029323;28;20205;-84
2023/04/08 07:33:47;;;;;;;7.23;5.73;;;12.10;62.60;12.30;96639.00;;;;5034732;28;20217;-84
2023/04/08 07:36:17;;;;;;;7.10;5.67;;;12.20;62.20;12.30;96631.00;;;;5038326;28;20200;-84
2023/04/08 07:38:46;;;;;;;6.27;5.67;;;12.20;61.90;12.30;96642.00;;;;5035382;28;20285;-84
2023/04/08 07:41:14;;;;;;;6.53;5.93;;;12.20;61.90;12.30;96640.00;;;;5031406;28;20221;-84
2023/04/08 07:43:41;;;;;;;6.30;5.70;;;12.20;62.60;12.30;96643.00;;;;5041711;28;20228;-82
2023/04/08 07:46:09;;;;;;;5.60;5.07;;;12.20;61.70;12.30;96634.00;;;;5018317;28;20201;-82
2023/04/08 07:48:37;;;;;;;6.10;5.60;;;12.20;61.70;12.30;96638.00;;;;5032354;28;20206;-83
2023/04/08 07:51:05;;;;;;;5.57;5.07;;;12.20;61.90;12.30;96636.00;;;;5037362;28;20209;-84
2023/04/08 07:53:33;;;;;;;6.13;5.53;;;12.20;62.00;12.40;96646.00;;;;5032323;28;20635;-84
2023/04/08 07:56:03;;;;;;;6.40;5.80;;;12.20;61.60;12.40;96631.00;;;;5041925;28;20189;-82
2023/04/08 07:58:30;;;;;;;6.23;5.63;;;12.20;61.40;12.40;96638.00;;;;5044251;28;20197;-83
2023/04/08 08:00:58;;;;;;;7.17;5.80;;;12.20;61.40;12.40;96643.00;;;;5034901;28;20193;-83
2023/04/08 08:03:26;;;;;;;7.27;6.57;;;12.20;61.20;12.40;96642.00;;;;5014575;28;20236;-84
2023/04/08 08:05:53;;;;;;;6.40;5.77;;;12.20;61.00;12.50;96643.00;;;;5036605;28;20200;-83
2023/04/08 08:08:21;;;;;;;6.70;6.00;;;12.30;60.60;12.50;96646.00;;;;4999043;28;20201;-85
2023/04/08 08:10:48;;;;;;;7.20;6.27;;;12.30;60.80;12.60;96640.00;;;;5019810;28;20228;-83
2023/04/08 08:13:20;;;;;;;7.70;6.10;;;12.30;61.00;12.60;96655.00;;;;5035188;28;20315;-83
2023/04/08 08:15:52;;;;;;;7.17;6.47;;;12.30;60.50;12.60;96648.00;;;;5017014;28;20197;-81
2023/04/08 08:18:19;;;;;;;6.90;6.27;;;12.40;60.50;12.60;96646.00;;;;5033072;28;20202;-81
2023/04/08 08:20:46;;;;;;;7.07;5.90;;;12.40;60.30;12.70;96647.00;;;;5039052;28;20201;-82
2023/04/08 08:23:14;;;;;;;7.23;6.30;;;12.40;60.10;12.70;96644.00;;;;5020950;28;20246;-80
2023/04/08 08:25:42;;;;;;;7.93;6.00;;;12.40;60.00;12.70;96649.00;;;;5047877;28;20223;-83
2023/04/08 08:28:12;;;;;;;7.53;6.30;;;12.40;60.00;12.60;96648.00;;;;5046634;28;20207;-81
2023/04/08 08:30:40;;;;;;;7.70;6.53;;;12.40;59.90;12.60;96644.00;;;;5059291;28;20200;-81
2023/04/08 08:33:07;;;;;;;6.77;5.93;;;12.50;59.90;12.60;96652.00;;;;5044222;28;20284;-82
2023/04/08 08:35:35;;;;;;;6.47;5.77;;;12.50;59.80;12.60;96644.00;;;;5051523;28;20220;-85
2023/04/08 08:38:03;;;;;;;5.77;5.27;;;12.40;59.60;12.60;96655.00;;;;5027457;28;20566;-82
2023/04/08 08:40:30;;;;;;;6.03;5.47;;;12.40;59.40;12.50;96659.00;;;;5067187;28;20413;-83
2023/04/08 08:43:00;;;;;;;5.93;5.33;;;12.40;59.40;12.50;96658.00;;;;5074242;28;20270;-82
2023/04/08 08:45:27;;;;;;;5.77;5.27;;;12.40;59.30;12.60;96652.00;;;;5057152;28;20201;-83
2023/04/08 08:47:56;;;;;;;6.20;5.60;;;12.40;59.30;12.60;96647.00;;;;5043076;28;20218;-85
2023/04/08 08:50:24;;;;;;;7.07;6.23;;;12.40;59.40;12.70;96654.00;;;;5036099;28;20284;-83
2023/04/08 08:52:52;;;;;;;6.77;6.07;;;12.40;59.30;12.70;96660.00;;;;5022213;28;20221;-83
2023/04/08 08:55:21;;;;;;;6.60;5.90;;;12.50;59.40;12.70;96658.00;;;;5040523;28;20225;-81
2023/04/08 08:57:51;;;;;;;6.53;5.43;;;12.50;59.20;12.70;96656.00;;;;5046256;28;20288;-85
2023/04/08 09:00:18;;;;;;;5.87;5.20;;;12.50;59.10;12.70;96664.00;;;;5051032;28;20280;-82
2023/04/08 09:02:46;;;;;;;5.27;4.77;;;12.50;59.20;12.70;96668.00;;;;5058373;28;20303;-81
2023/04/08 09:05:14;;;;;;;5.70;5.13;;;12.60;59.20;12.70;96669.00;;;;5037563;28;20269;-81
2023/04/08 09:07:41;;;;;;;5.03;4.37;;;12.60;59.20;12.70;96669.00;;;;5042322;28;20222;-80
2023/04/08 09:10:10;;;;;;;5.13;4.73;;;12.60;59.10;12.70;96680.00;;;;5048263;28;20271;-80
2023/04/08 09:12:55;;;;;;;4.83;4.43;;;12.60;59.10;12.70;96673.00;;;;5022440;28;20270;-80
2023/04/08 09:15:22;;;;;;;4.83;4.43;;;12.50;59.00;12.70;96679.00;;;;5036521;28;20220;-81
2023/04/08 09:17:49;;;;;;;5.37;4.50;;;12.50;59.10;12.60;96681.00;;;;5046263;28;20192;-80
2023/04/08 09:20:20;;;;;;;5.47;5.07;;;12.50;59.30;12.60;96678.00;;;;5004432;28;20662;-81
2023/04/08 09:22:59;;;;;;;5.20;4.80;;;12.50;59.40;12.60;96680.00;;;;5043911;28;20225;-79
2023/04/08 09:25:28;;;;;;;5.87;5.37;;;12.50;59.60;12.60;96689.00;;;;5027738;28;20474;-83
2023/04/08 09:27:59;;;;;;;5.23;4.80;;;12.50;59.70;12.60;96690.00;;;;5056280;28;20193;-82
2023/04/08 09:30:28;;;;;;;5.70;5.20;;;12.50;59.80;12.70;96684.00;;;;5049807;28;20251;-81
2023/04/08 09:32:57;;;;;;;5.60;5.10;;;12.50;59.80;12.70;96690.00;;;;5017696;28;20217;-82
2023/04/08 09:35:26;;;;;;;5.10;4.70;;;12.50;59.70;12.70;96686.00;;;;5047486;28;20203;-84
2023/04/08 09:37:53;;;;;;;9.40;4.30;;;12.50;59.70;12.70;96695.00;;;;5019176;28;20193;-81
2023/04/08 09:40:20;;;;;;;3.20;3.00;;;12.40;59.70;12.70;96701.00;;;;5036659;28;20197;-84
2023/04/08 09:42:51;;;;;;;2.93;2.73;;;12.50;59.80;12.70;96698.00;;;;5014503;28;20237;-83
2023/04/08 09:45:19;;;;;;;2.50;2.30;;;12.50;59.80;12.70;96703.00;;;;5033773;28;20201;-83
2023/04/08 09:47:58;;;;;;;2.90;2.70;;;12.50;59.80;12.70;96705.00;;;;5028408;28;20201;-83
2023/04/08 09:50:31;;;;;;;2.50;2.30;;;12.50;59.70;12.60;96701.00;;;;5049641;28;20200;-80
2023/04/08 09:53:09;;;;;;;2.40;2.30;;;12.50;59.70;12.60;96704.00;;;;5048875;28;20216;-81
2023/04/08 09:55:39;;;;;;;2.53;2.33;;;12.40;59.70;12.60;96709.00;;;;5048255;28;20224;-80
2023/04/08 09:58:16;;;;;;;2.50;2.30;;;12.40;59.60;12.50;96712.00;;;;5027700;28;20201;-80
2023/04/08 10:00:49;;;;;;;1.93;1.83;;;12.40;59.60;12.50;96706.00;;;;5037944;28;20284;-85
2023/04/08 10:03:29;;;;;;;1.80;1.70;;;12.40;59.50;12.40;96714.00;;;;5019621;28;20235;-82
2023/04/08 10:06:02;;;;;;;1.60;1.50;;;12.40;59.60;12.30;96706.00;;;;5038267;28;20211;-81
2023/04/08 10:08:32;;;;;;;1.67;1.57;;;12.30;59.70;12.30;96708.00;;;;5049384;28;20212;-83
2023/04/08 10:11:01;;;;;;;1.70;1.60;;;12.30;59.70;12.30;96713.00;;;;5052360;28;20612;-81
2023/04/08 10:13:30;;;;;;;1.87;1.77;;;12.20;59.60;12.30;96716.00;;;;5047219;28;20289;-82
2023/04/08 10:16:21;;;;;;;2.27;2.17;;;12.20;59.70;12.20;96719.00;;;;5042866;28;20224;-82
2023/04/08 10:18:51;;;;;;;2.80;2.60;;;12.20;59.60;12.10;96707.00;;;;5049774;28;20201;-82
2023/04/08 10:21:50;;;;;;;2.93;2.73;;;12.20;59.60;12.10;96708.00;;;;5023532;28;20204;-82
2023/04/08 10:24:23;;;;;;;3.13;2.93;;;12.10;59.50;12.00;96711.00;;;;5049151;28;20224;-82
2023/04/08 10:26:50;;;;;;;2.97;2.77;;;12.10;59.60;12.00;96718.00;;;;5043322;28;20193;-82
2023/04/08 10:29:45;;;;;;;4.17;3.80;;;12.00;59.60;11.90;96718.00;;;;5030773;28;20619;-80
2023/04/08 10:32:30;;;;;;;3.47;3.17;;;12.00;60.00;11.90;96716.00;;;;5033291;28;20193;-83
2023/04/08 10:34:57;;;;;;;3.43;3.13;;;12.00;60.20;11.90;96715.00;;;;5034572;28;20239;-82
2023/04/08 10:37:27;;;;;;;3.50;3.20;;;11.90;60.20;11.90;96714.00;;;;5039329;28;20205;-79
2023/04/08 10:39:55;;;;;;;3.33;3.03;;;11.90;60.40;11.90;96717.00;;;;5035333;28;20215;-81
2023/04/08 10:42:29;;;;;;;3.30;2.97;;;11.90;60.70;11.80;96715.00;;;;5032947;28;20320;-81
2023/04/08 10:45:02;;;;;;;3.20;3.00;;;11.90;60.70;11.80;96714.00;;;;5042472;28;20288;-82
2023/04/08 10:47:29;;;;;;;3.30;3.10;;;11.80;60.70;11.80;96712.00;;;;5032548;28;20205;-83
2023/04/08 10:49:57;;;;;;;4.50;3.33;;;11.80;60.60;11.80;96715.00;;;;5032148;28;20296;-81
2023/04/08 10:52:27;;;;;;;3.93;3.63;;;11.80;60.60;11.80;96722.00;;;;5023695;28;20286;-82
2023/04/08 10:54:55;;;;;;;3.60;3.30;;;11.80;60.70;11.70;96723.00;;;;5062022;28;20208;-81
2023/04/08 10:57:25;;;;;;;4.47;4.07;;;11.70;60.60;11.70;96725.00;;;;5045140;28;20797;-81
2023/04/08 10:59:53;;;;;;;3.60;3.37;;;11.70;60.70;11.70;96722.00;;;;5039068;28;20189;-80
2023/04/08 11:02:21;;;;;;;4.40;4.07;;;11.70;60.80;11.70;96721.00;;;;5036156;28;20229;-80
2023/04/08 11:04:48;;;;;;;4.40;4.00;;;11.70;60.70;11.70;96713.00;;;;5035799;28;20205;-81
2023/04/08 11:07:16;;;;;;;4.63;4.33;;;11.60;60.60;11.60;96712.00;;;;5039039;28;20930;-81
2023/04/08 11:09:45;;;;;;;4.70;4.30;;;11.60;60.70;11.60;96725.00;;;;5018512;28;20193;-82